Poplar, California
Current Conditions -  °F | °C
As of 8:35 AM on Sunday 21 Dec 2014 (Local Time) from KPTV Reporting Station
Overcast Overcast  
Wind Chill: 48°   Ceiling: 600
Heat Index: 48°   Visibility: 3mi
Dew Point: 45°   Wind: 0mph
Humidity: 87%   Direction: NA
Pressure: 30.31"   Gusts: NA
Location:  36.0318°N, 118.965°W
Report Text: KPTV 211635Z AUTO 00000KT 3SM BKN006 BKN033 OVC055 09/07 A3031 RMK AO1
Loading
Personal Weather Stations






























Interactive Weather Map New forecast layout! Learn more

10-Day Weather Forecast

Advertisements
Track Severe Weather on mobile